Terminal Aerodrome Forecast
Issued by NWS

Home | Current Version | Previous Version | Text Only | Print | Product List | Glossary On
Versions: 1 2 3 4 5 6 7 8 9 10 11 12 13 14 15
000
FTUS42 KMHX 281120
TAFOAJ
TAF
KOAJ 281120Z 2812/0112 01010KT P6SM SKC
     FM281400 06012G17KT P6SM SCT150
     FM282200 10008KT P6SM BKN150
     FM010400 10007KT P6SM BKN060
     FM011000 02010KT P6SM BKN030
      AMD LTD TO CLD VIS AND WIND=

USA.gov is the U.S. government's official web portal to all federal, state and local government web resources and services.